Time;durP1;ratioP1;P1;durP2;ratioP2;P2;SDS_P1;SDS_P2;PMS_P1;PMS_P2;Temp;Humidity;BMP_temperature;BMP_pressure;BME280_temperature;BME280_humidity;BME280_pressure;Samples;Min_cycle;Max_cycle;Signal;HPM_P1;HPM_P2
2023/09/23 00:01:34;;;;;;;0.47;0.20;;;;;;;;;;5051118;28;20045;-71
2023/09/23 00:04:01;;;;;;;2.13;0.40;;;;;;;;;;5051138;28;20436;-71
2023/09/23 00:06:28;;;;;;;2.42;0.32;;;;;;;;;;5050960;28;20124;-73
2023/09/23 00:08:56;;;;;;;0.77;0.30;;;;;;;;;;5033403;28;20049;-73
2023/09/23 00:11:22;;;;;;;0.63;0.30;;;;;;;;;;5050939;28;20098;-74
2023/09/23 00:13:49;;;;;;;1.60;0.47;;;;;;;;;;5051416;28;20071;-73
2023/09/23 00:16:16;;;;;;;1.27;0.40;;;;;;;;;;5050613;28;20508;-73
2023/09/23 00:18:43;;;;;;;1.17;0.20;;;;;;;;;;5050985;28;20047;-71
2023/09/23 00:21:12;;;;;;;0.80;0.40;;;;;;;;;;5050767;28;20041;-70
2023/09/23 00:23:39;;;;;;;2.03;0.40;;;;;;;;;;5050827;28;20084;-71
2023/09/23 00:26:11;;;;;;;1.05;0.40;;;;;;;;;;5050626;28;20052;-71
2023/09/23 00:28:38;;;;;;;0.25;0.20;;;;;;;;;;5050760;28;20058;-71
2023/09/23 00:31:10;;;;;;;0.25;0.20;;;;;;;;;;5049919;28;20049;-71
2023/09/23 00:33:37;;;;;;;0.50;0.30;;;;;;;;;;5050768;28;20051;-71
2023/09/23 00:36:07;;;;;;;2.10;0.35;;;;;;;;;;5050733;28;20056;-68
2023/09/23 00:38:34;;;;;;;1.15;0.40;;;;;;;;;;5050600;28;20124;-69
2023/09/23 00:41:01;;;;;;;0.30;0.20;;;;;;;;;;5050797;28;20057;-69
2023/09/23 00:43:28;;;;;;;0.30;0.30;;;;;;;;;;5050091;28;20084;-72
2023/09/23 00:45:54;;;;;;;0.47;0.30;;;;;;;;;;5050456;28;20065;-70
2023/09/23 00:48:22;;;;;;;4.68;0.32;;;;;;;;;;5049986;28;20080;-69
2023/09/23 00:50:51;;;;;;;0.45;0.22;;;;;;;;;;5050276;28;20405;-70
2023/09/23 00:53:20;;;;;;;1.65;0.30;;;;;;;;;;5050084;28;20045;-71
2023/09/23 00:55:52;;;;;;;1.35;0.40;;;;;;;;;;5050496;28;20053;-68
2023/09/23 00:58:21;;;;;;;0.85;0.35;;;;;;;;;;5049909;28;20041;-74
2023/09/23 01:00:49;;;;;;;0.20;0.20;;;;;;;;;;5050057;28;20128;-71
2023/09/23 01:03:16;;;;;;;0.47;0.20;;;;;;;;;;5049979;28;20052;-70
2023/09/23 01:05:48;;;;;;;0.73;0.38;;;;;;;;;;5050068;28;20041;-73
2023/09/23 01:08:22;;;;;;;1.13;0.35;;;;;;;;;;5049452;28;20041;-71
2023/09/23 01:10:49;;;;;;;0.38;0.20;;;;;;;;;;5050284;28;20047;-73
2023/09/23 01:13:20;;;;;;;0.63;0.28;;;;;;;;;;5049432;28;20404;-69
2023/09/23 01:15:47;;;;;;;0.30;0.13;;;;;;;;;;5050194;28;20049;-71
2023/09/23 01:18:14;;;;;;;0.38;0.30;;;;;;;;;;5049691;28;20049;-71
2023/09/23 01:20:44;;;;;;;1.05;0.40;;;;;;;;;;5050029;28;20052;-69
2023/09/23 01:23:12;;;;;;;0.70;0.38;;;;;;;;;;5049568;28;20076;-70
2023/09/23 01:25:39;;;;;;;0.52;0.30;;;;;;;;;;5049761;28;20405;-71
2023/09/23 01:28:13;;;;;;;0.50;0.20;;;;;;;;;;5049627;28;20106;-72
2023/09/23 01:30:41;;;;;;;2.28;0.40;;;;;;;;;;5049959;28;20139;-73
2023/09/23 01:33:12;;;;;;;0.30;0.17;;;;;;;;;;5049660;28;20049;-68
2023/09/23 01:35:41;;;;;;;1.25;0.30;;;;;;;;;;5049777;28;20048;-71
2023/09/23 01:38:08;;;;;;;0.35;0.20;;;;;;;;;;5049105;28;20056;-71
2023/09/23 01:40:36;;;;;;;2.20;0.28;;;;;;;;;;5050136;28;20053;-72
2023/09/23 01:43:04;;;;;;;1.27;0.40;;;;;;;;;;5049022;28;20135;-73
2023/09/23 01:45:31;;;;;;;0.30;0.20;;;;;;;;;;5049585;28;20055;-70
2023/09/23 01:47:58;;;;;;;1.30;0.40;;;;;;;;;;5049670;28;20079;-69
2023/09/23 01:50:26;;;;;;;0.70;0.30;;;;;;;;;;5049255;28;20107;-69
2023/09/23 01:52:56;;;;;;;0.35;0.25;;;;;;;;;;5049199;28;20053;-73
2023/09/23 01:55:22;;;;;;;0.75;0.30;;;;;;;;;;5049640;28;20155;-72
2023/09/23 01:57:49;;;;;;;0.45;0.30;;;;;;;;;;5049421;28;20051;-74
2023/09/23 02:00:24;;;;;;;0.40;0.20;;;;;;;;;;5049744;28;20053;-74
2023/09/23 02:02:53;;;;;;;1.25;0.40;;;;;;;;;;5049279;28;20131;-72
2023/09/23 02:05:24;;;;;;;1.00;0.30;;;;;;;;;;5049271;28;20520;-72
2023/09/23 02:07:51;;;;;;;1.17;0.28;;;;;;;;;;5048829;28;20508;-73
2023/09/23 02:10:17;;;;;;;2.05;0.32;;;;;;;;;;5049222;28;20491;-70
2023/09/23 02:12:44;;;;;;;0.40;0.20;;;;;;;;;;5049030;28;20072;-72
2023/09/23 02:15:17;;;;;;;0.90;0.40;;;;;;;;;;5049343;28;20053;-72
2023/09/23 02:17:45;;;;;;;0.55;0.30;;;;;;;;;;5048962;28;20146;-72
2023/09/23 02:20:21;;;;;;;0.22;0.20;;;;;;;;;;5049492;28;20082;-71
2023/09/23 02:22:53;;;;;;;0.20;0.10;;;;;;;;;;5049159;28;20045;-72
2023/09/23 02:25:24;;;;;;;4.32;0.28;;;;;;;;;;5049062;28;20056;-72
2023/09/23 02:27:52;;;;;;;0.55;0.22;;;;;;;;;;5048863;28;20073;-72
2023/09/23 02:30:19;;;;;;;0.85;0.30;;;;;;;;;;5048982;28;20049;-73
2023/09/23 02:32:46;;;;;;;0.60;0.25;;;;;;;;;;5049136;28;20041;-71
2023/09/23 02:35:15;;;;;;;1.10;0.40;;;;;;;;;;5048992;28;20053;-72
2023/09/23 02:37:45;;;;;;;0.70;0.30;;;;;;;;;;5049269;28;20049;-73
2023/09/23 02:40:13;;;;;;;1.63;0.20;;;;;;;;;;5049158;28;20052;-72
2023/09/23 02:42:42;;;;;;;0.60;0.20;;;;;;;;;;5048965;28;20041;-72
2023/09/23 02:45:12;;;;;;;0.68;0.25;;;;;;;;;;5048676;28;20520;-71
2023/09/23 02:47:39;;;;;;;0.55;0.20;;;;;;;;;;5049018;28;20118;-72
2023/09/23 02:50:13;;;;;;;1.23;0.32;;;;;;;;;;5048589;28;20698;-71
2023/09/23 02:52:42;;;;;;;1.13;0.30;;;;;;;;;;5049146;28;20041;-72
2023/09/23 02:55:14;;;;;;;2.28;0.30;;;;;;;;;;5051459;28;20099;-74
2023/09/23 02:57:48;;;;;;;0.45;0.30;;;;;;;;;;5052712;28;20045;-72
2023/09/23 03:00:22;;;;;;;2.38;0.55;;;;;;;;;;5052159;28;20127;-70
2023/09/23 03:02:54;;;;;;;0.13;0.13;;;;;;;;;;5052544;28;20072;-72
2023/09/23 03:05:28;;;;;;;0.50;0.20;;;;;;;;;;5052095;28;20052;-70
2023/09/23 03:07:58;;;;;;;2.08;0.40;;;;;;;;;;5052388;28;20045;-73
2023/09/23 03:10:34;;;;;;;1.45;0.20;;;;;;;;;;5052034;28;20072;-71
2023/09/23 03:13:07;;;;;;;2.13;0.40;;;;;;;;;;5052345;28;20045;-72
2023/09/23 03:15:51;;;;;;;0.93;0.20;;;;;;;;;;5051780;28;20114;-72
2023/09/23 03:18:27;;;;;;;1.02;0.30;;;;;;;;;;5051888;28;20070;-70
2023/09/23 03:20:55;;;;;;;2.55;0.30;;;;;;;;;;5052233;28;20052;-70
2023/09/23 03:23:23;;;;;;;0.17;0.13;;;;;;;;;;5052030;28;20060;-70
2023/09/23 03:25:51;;;;;;;0.93;0.40;;;;;;;;;;5051944;28;20056;-69
2023/09/23 03:28:18;;;;;;;0.70;0.28;;;;;;;;;;5051841;28;20048;-71
2023/09/23 03:30:49;;;;;;;1.20;0.30;;;;;;;;;;5052144;28;20087;-73
2023/09/23 03:33:20;;;;;;;0.75;0.20;;;;;;;;;;5051748;28;20087;-73
2023/09/23 03:35:47;;;;;;;1.70;0.35;;;;;;;;;;5051686;28;20512;-70
2023/09/23 03:38:16;;;;;;;1.55;0.38;;;;;;;;;;5051656;28;20049;-71
2023/09/23 03:40:54;;;;;;;0.25;0.20;;;;;;;;;;5051806;28;20049;-69
2023/09/23 03:43:21;;;;;;;0.38;0.28;;;;;;;;;;5052040;28;20048;-71
2023/09/23 03:45:48;;;;;;;0.45;0.20;;;;;;;;;;5051468;28;20517;-71
2023/09/23 03:48:15;;;;;;;0.93;0.30;;;;;;;;;;5051773;28;20099;-72
2023/09/23 03:50:42;;;;;;;0.43;0.20;;;;;;;;;;5051243;28;20063;-72
2023/09/23 03:53:12;;;;;;;0.68;0.17;;;;;;;;;;5051707;28;20055;-72
2023/09/23 03:55:39;;;;;;;1.48;0.32;;;;;;;;;;5051109;28;20553;-72
2023/09/23 03:58:06;;;;;;;1.25;0.40;;;;;;;;;;5051488;28;20055;-70
2023/09/23 04:00:34;;;;;;;0.98;0.50;;;;;;;;;;5051368;28;20053;-71
2023/09/23 04:03:00;;;;;;;0.60;0.22;;;;;;;;;;5051442;28;20102;-69
2023/09/23 04:05:30;;;;;;;1.10;0.32;;;;;;;;;;5051225;28;20122;-70
2023/09/23 04:07:58;;;;;;;1.70;0.38;;;;;;;;;;5051033;28;20604;-73
2023/09/23 04:10:25;;;;;;;1.05;0.25;;;;;;;;;;5051208;28;20053;-69
2023/09/23 04:12:53;;;;;;;0.20;0.20;;;;;;;;;;5051200;28;20045;-74
2023/09/23 04:15:21;;;;;;;1.10;0.40;;;;;;;;;;5050603;28;20102;-73
2023/09/23 04:17:48;;;;;;;0.50;0.28;;;;;;;;;;5051024;28;20051;-70
2023/09/23 04:20:15;;;;;;;0.50;0.40;;;;;;;;;;5050771;28;20139;-74
2023/09/23 04:22:42;;;;;;;1.77;0.40;;;;;;;;;;5033641;28;20069;-72
2023/09/23 04:25:10;;;;;;;0.43;0.22;;;;;;;;;;5050651;28;20196;-74
2023/09/23 04:27:37;;;;;;;0.65;0.20;;;;;;;;;;5051065;28;20064;-70
2023/09/23 04:30:09;;;;;;;1.35;0.30;;;;;;;;;;5050442;28;20059;-71
2023/09/23 04:32:39;;;;;;;0.43;0.20;;;;;;;;;;5050886;28;20049;-74
2023/09/23 04:35:07;;;;;;;0.50;0.10;;;;;;;;;;5050225;28;20139;-70
2023/09/23 04:37:37;;;;;;;3.97;0.43;;;;;;;;;;5050632;28;20050;-73
2023/09/23 04:40:09;;;;;;;2.63;0.38;;;;;;;;;;5050161;28;20516;-69
2023/09/23 04:42:39;;;;;;;0.65;0.40;;;;;;;;;;5050396;28;20397;-73
2023/09/23 04:45:07;;;;;;;;;;;;;;;;;;5033136;28;20052;-74
2023/09/23 04:47:35;;;;;;;0.98;0.28;;;;;;;;;;5050482;28;20017;-71
2023/09/23 04:50:05;;;;;;;1.45;0.22;;;;;;;;;;5049944;28;20095;-71
2023/09/23 04:52:32;;;;;;;0.60;0.20;;;;;;;;;;5050489;28;20288;-73
2023/09/23 04:55:00;;;;;;;1.67;0.20;;;;;;;;;;5049765;28;20068;-72
2023/09/23 04:57:26;;;;;;;2.03;0.40;;;;;;;;;;5050341;28;20052;-73
2023/09/23 04:59:54;;;;;;;0.20;0.20;;;;;;;;;;5049794;28;20606;-69
2023/09/23 05:02:21;;;;;;;0.52;0.25;;;;;;;;;;5050476;28;20059;-71
2023/09/23 05:04:53;;;;;;;0.82;0.30;;;;;;;;;;5049885;28;20135;-70
2023/09/23 05:07:21;;;;;;;0.70;0.20;;;;;;;;;;5050349;28;20045;-70
2023/09/23 05:09:48;;;;;;;1.08;0.38;;;;;;;;;;5049654;28;20073;-69
2023/09/23 05:12:16;;;;;;;0.93;0.30;;;;;;;;;;5050111;28;20045;-74
2023/09/23 05:14:43;;;;;;;1.52;0.30;;;;;;;;;;5049760;28;20053;-74
2023/09/23 05:17:14;;;;;;;1.70;0.30;;;;;;;;;;5031710;28;20049;-74
2023/09/23 05:19:47;;;;;;;1.58;0.30;;;;;;;;;;5049859;28;20072;-71
2023/09/23 05:22:14;;;;;;;0.25;0.20;;;;;;;;;;5050140;28;20131;-72
2023/09/23 05:24:41;;;;;;;0.68;0.30;;;;;;;;;;5049567;28;20487;-69
2023/09/23 05:27:09;;;;;;;0.57;0.25;;;;;;;;;;5049661;28;20067;-74
2023/09/23 05:29:36;;;;;;;0.43;0.20;;;;;;;;;;5031834;28;20049;-72
2023/09/23 05:32:03;;;;;;;0.88;0.47;;;;;;;;;;5049762;28;20095;-73
2023/09/23 05:34:30;;;;;;;0.82;0.40;;;;;;;;;;5049494;28;20044;-69
2023/09/23 05:36:57;;;;;;;1.25;0.43;;;;;;;;;;5049719;28;20052;-71
2023/09/23 05:39:24;;;;;;;2.63;0.30;;;;;;;;;;5049501;28;20076;-71
2023/09/23 05:41:51;;;;;;;0.30;0.22;;;;;;;;;;5049625;28;20045;-72
2023/09/23 05:44:18;;;;;;;0.70;0.28;;;;;;;;;;5049662;28;20077;-70
2023/09/23 05:46:48;;;;;;;0.55;0.30;;;;;;;;;;5049226;28;20429;-73
2023/09/23 05:49:16;;;;;;;1.77;0.50;;;;;;;;;;5049321;28;20136;-71
2023/09/23 05:51:43;;;;;;;1.80;0.40;;;;;;;;;;5049286;28;20665;-72
2023/09/23 05:54:11;;;;;;;0.30;0.25;;;;;;;;;;5049323;28;20106;-70
2023/09/23 05:56:38;;;;;;;0.50;0.30;;;;;;;;;;5049290;28;20056;-73
2023/09/23 05:59:10;;;;;;;1.80;0.50;;;;;;;;;;5049543;28;20051;-73
2023/09/23 06:01:40;;;;;;;2.28;0.35;;;;;;;;;;5049122;28;20051;-74
2023/09/23 06:04:09;;;;;;;;;;;;;;;;;;5050056;28;20052;-71
2023/09/23 06:06:40;;;;;;;1.90;0.30;;;;;;;;;;5049601;28;19920;-71
2023/09/23 06:09:07;;;;;;;2.40;0.57;;;;;;;;;;5049416;28;20053;-69
2023/09/23 06:11:34;;;;;;;0.98;0.45;;;;;;;;;;5048920;28;20045;-68
2023/09/23 06:14:01;;;;;;;1.58;0.40;;;;;;;;;;5049676;28;20052;-68
2023/09/23 06:16:28;;;;;;;0.47;0.20;;;;;;;;;;5048988;28;20049;-68
2023/09/23 06:18:55;;;;;;;0.70;0.40;;;;;;;;;;5049503;28;20138;-69
2023/09/23 06:21:22;;;;;;;0.70;0.28;;;;;;;;;;5048873;28;20045;-69
2023/09/23 06:23:48;;;;;;;0.90;0.40;;;;;;;;;;5049099;28;20048;-72
2023/09/23 06:26:16;;;;;;;0.80;0.38;;;;;;;;;;5049283;28;20056;-71
2023/09/23 06:28:43;;;;;;;1.05;0.30;;;;;;;;;;5049839;28;20044;-72
2023/09/23 06:31:10;;;;;;;1.52;0.40;;;;;;;;;;5052612;28;20105;-71
2023/09/23 06:33:37;;;;;;;0.43;0.30;;;;;;;;;;5052931;28;20068;-69
2023/09/23 06:36:04;;;;;;;0.75;0.22;;;;;;;;;;5052704;28;20059;-69
2023/09/23 06:38:32;;;;;;;0.95;0.40;;;;;;;;;;5052369;28;20049;-68
2023/09/23 06:40:59;;;;;;;1.85;0.50;;;;;;;;;;5052401;28;20045;-72
2023/09/23 06:43:26;;;;;;;2.80;0.40;;;;;;;;;;5052567;28;20055;-71
2023/09/23 06:45:57;;;;;;;1.95;0.40;;;;;;;;;;5052562;28;20056;-69
2023/09/23 06:48:25;;;;;;;1.20;0.40;;;;;;;;;;5052436;28;20477;-68
2023/09/23 06:51:10;;;;;;;1.10;0.40;;;;;;;;;;5052088;28;20253;-73
2023/09/23 06:53:37;;;;;;;0.28;0.28;;;;;;;;;;5052137;28;20056;-69
2023/09/23 06:56:03;;;;;;;0.88;0.43;;;;;;;;;;5051765;28;20056;-70
2023/09/23 06:58:30;;;;;;;0.70;0.30;;;;;;;;;;5052488;28;20088;-72
2023/09/23 07:00:57;;;;;;;1.83;0.68;;;;;;;;;;5051920;28;20523;-68
2023/09/23 07:03:24;;;;;;;0.43;0.30;;;;;;;;;;5052076;28;20052;-69
2023/09/23 07:05:51;;;;;;;1.05;0.40;;;;;;;;;;5052035;28;20045;-70
2023/09/23 07:08:18;;;;;;;1.48;0.45;;;;;;;;;;5051717;28;20045;-68
2023/09/23 07:10:45;;;;;;;0.50;0.40;;;;;;;;;;5052085;28;20049;-70
2023/09/23 07:13:11;;;;;;;1.17;0.40;;;;;;;;;;5051984;28;20049;-72
2023/09/23 07:15:40;;;;;;;1.70;0.40;;;;;;;;;;5051797;28;20110;-72
2023/09/23 07:18:08;;;;;;;0.57;0.40;;;;;;;;;;5052043;28;20048;-69
2023/09/23 07:20:35;;;;;;;2.85;0.40;;;;;;;;;;5052139;28;20072;-73
2023/09/23 07:23:02;;;;;;;1.73;0.45;;;;;;;;;;5052062;28;20047;-70
2023/09/23 07:25:29;;;;;;;0.75;0.40;;;;;;;;;;5052023;28;20048;-71
2023/09/23 07:27:59;;;;;;;2.70;0.60;;;;;;;;;;5052021;28;20049;-69
2023/09/23 07:30:26;;;;;;;0.85;0.50;;;;;;;;;;5051493;28;20131;-73
2023/09/23 07:32:52;;;;;;;3.75;0.57;;;;;;;;;;5051672;28;20049;-72
2023/09/23 07:35:20;;;;;;;3.72;0.65;;;;;;;;;;5051887;28;20069;-73
2023/09/23 07:37:46;;;;;;;0.63;0.40;;;;;;;;;;5051688;28;20059;-69
2023/09/23 07:40:13;;;;;;;1.67;0.50;;;;;;;;;;5051061;28;20081;-69
2023/09/23 07:42:40;;;;;;;1.05;0.40;;;;;;;;;;5051395;28;20103;-73
2023/09/23 07:45:08;;;;;;;0.40;0.30;;;;;;;;;;5051868;28;20049;-72
2023/09/23 07:47:35;;;;;;;1.25;0.45;;;;;;;;;;5051162;28;20103;-71
2023/09/23 07:50:03;;;;;;;1.35;0.40;;;;;;;;;;5051056;28;20501;-73
2023/09/23 07:52:32;;;;;;;3.03;0.70;;;;;;;;;;5051125;28;20144;-72
2023/09/23 07:54:59;;;;;;;1.35;0.50;;;;;;;;;;5051295;28;20049;-72
2023/09/23 07:57:26;;;;;;;2.13;0.40;;;;;;;;;;5051324;28;20045;-69
2023/09/23 07:59:52;;;;;;;1.77;0.50;;;;;;;;;;5051291;28;20049;-71
2023/09/23 08:02:19;;;;;;;1.08;0.60;;;;;;;;;;5050791;28;20514;-72
2023/09/23 08:04:46;;;;;;;2.13;0.55;;;;;;;;;;5050994;28;20553;-71
2023/09/23 08:07:13;;;;;;;2.00;0.57;;;;;;;;;;5050667;28;20045;-73
2023/09/23 08:09:40;;;;;;;2.50;0.60;;;;;;;;;;5050969;28;20088;-69
2023/09/23 08:12:07;;;;;;;3.33;0.60;;;;;;;;;;5050629;28;20044;-70
2023/09/23 08:14:33;;;;;;;1.98;0.50;;;;;;;;;;5050916;28;20732;-70
2023/09/23 08:17:00;;;;;;;1.10;0.50;;;;;;;;;;5050728;28;20051;-73
2023/09/23 08:19:27;;;;;;;1.45;0.40;;;;;;;;;;5050828;28;20129;-72
2023/09/23 08:21:54;;;;;;;1.40;0.40;;;;;;;;;;5049394;28;20048;-73
2023/09/23 08:24:21;;;;;;;0.98;0.30;;;;;;;;;;5050635;28;20382;-72
2023/09/23 08:26:47;;;;;;;1.27;0.57;;;;;;;;;;5050798;28;20044;-73
2023/09/23 08:29:14;;;;;;;2.10;0.60;;;;;;;;;;5050827;28;20041;-72
2023/09/23 08:31:42;;;;;;;0.68;0.40;;;;;;;;;;5050676;28;20044;-74
2023/09/23 08:34:11;;;;;;;0.30;0.30;;;;;;;;;;5050822;28;20052;-74
2023/09/23 08:36:38;;;;;;;1.42;0.38;;;;;;;;;;5050521;28;20532;-70
2023/09/23 08:39:09;;;;;;;0.80;0.32;;;;;;;;;;5050257;28;20060;-69
2023/09/23 08:41:36;;;;;;;1.92;0.50;;;;;;;;;;5050347;28;20051;-68
2023/09/23 08:44:08;;;;;;;1.13;0.45;;;;;;;;;;5050075;28;20496;-68
2023/09/23 08:46:35;;;;;;;3.72;0.50;;;;;;;;;;5050807;28;20752;-69
2023/09/23 08:49:03;;;;;;;2.35;0.45;;;;;;;;;;5050242;28;20044;-69
2023/09/23 08:51:31;;;;;;;1.67;0.40;;;;;;;;;;5049070;28;20053;-70
2023/09/23 08:53:58;;;;;;;1.77;0.45;;;;;;;;;;5049914;28;20533;-70
2023/09/23 08:56:24;;;;;;;2.72;0.55;;;;;;;;;;5050316;28;20055;-69
2023/09/23 08:58:51;;;;;;;1.73;0.40;;;;;;;;;;5049783;28;20492;-72
2023/09/23 09:01:18;;;;;;;0.65;0.40;;;;;;;;;;5050078;28;20439;-72
2023/09/23 09:03:47;;;;;;;2.50;0.55;;;;;;;;;;5049782;28;20103;-70
2023/09/23 09:06:21;;;;;;;1.55;0.47;;;;;;;;;;5050062;28;20118;-71
2023/09/23 09:08:48;;;;;;;0.95;0.47;;;;;;;;;;5049925;28;20303;-72
2023/09/23 09:11:23;;;;;;;2.20;0.50;;;;;;;;;;5032446;28;20041;-73
2023/09/23 09:13:50;;;;;;;1.45;0.57;;;;;;;;;;5049736;28;20051;-71
2023/09/23 09:16:18;;;;;;;1.58;0.38;;;;;;;;;;5050009;28;20098;-70
2023/09/23 09:18:50;;;;;;;1.33;0.40;;;;;;;;;;5049324;28;20528;-71
2023/09/23 09:21:16;;;;;;;0.85;0.30;;;;;;;;;;5049892;28;20133;-71
2023/09/23 09:23:43;;;;;;;1.27;0.60;;;;;;;;;;5049788;28;20044;-73
2023/09/23 09:26:10;;;;;;;1.10;0.30;;;;;;;;;;5032248;28;20048;-68
2023/09/23 09:28:37;;;;;;;0.77;0.40;;;;;;;;;;5049458;28;20384;-71
2023/09/23 09:31:09;;;;;;;1.30;0.52;;;;;;;;;;5049469;28;20041;-69
2023/09/23 09:33:37;;;;;;;1.02;0.60;;;;;;;;;;5049543;28;20044;-72
2023/09/23 09:36:07;;;;;;;1.17;0.40;;;;;;;;;;5049402;28;20059;-73
2023/09/23 09:38:37;;;;;;;4.80;0.60;;;;;;;;;;5049483;28;20051;-70
2023/09/23 09:41:07;;;;;;;1.83;0.60;;;;;;;;;;5049457;28;20195;-72
2023/09/23 09:43:34;;;;;;;4.35;0.63;;;;;;;;;;5049231;28;20049;-69
2023/09/23 09:46:08;;;;;;;1.13;0.38;;;;;;;;;;5049608;28;20570;-72
2023/09/23 09:48:41;;;;;;;2.92;0.60;;;;;;;;;;5049130;28;20528;-70
2023/09/23 09:51:13;;;;;;;0.88;0.40;;;;;;;;;;5049220;28;20064;-69
2023/09/23 09:53:44;;;;;;;1.67;0.40;;;;;;;;;;5048956;28;20049;-70
2023/09/23 09:56:11;;;;;;;;;;;;;;;;;;5049604;28;20091;-71
2023/09/23 09:58:40;;;;;;;1.48;0.47;;;;;;;;;;5049189;28;19920;-70
2023/09/23 10:01:13;;;;;;;3.60;0.73;;;;;;;;;;5049140;28;20536;-69
2023/09/23 10:03:42;;;;;;;4.07;0.63;;;;;;;;;;5051622;28;20056;-72
2023/09/23 10:06:18;;;;;;;0.93;0.50;;;;;;;;;;5053540;28;20110;-71
2023/09/23 10:08:48;;;;;;;0.95;0.40;;;;;;;;;;5052869;28;20048;-68
2023/09/23 10:11:16;;;;;;;0.28;0.22;;;;;;;;;;5053132;28;20053;-71
2023/09/23 10:13:43;;;;;;;0.70;0.32;;;;;;;;;;5053176;28;20052;-69
2023/09/23 10:16:19;;;;;;;1.95;0.60;;;;;;;;;;5053378;28;20041;-71
2023/09/23 10:18:56;;;;;;;1.65;0.40;;;;;;;;;;5052795;28;20045;-71
2023/09/23 10:21:27;;;;;;;1.25;0.50;;;;;;;;;;5053595;28;20045;-71
2023/09/23 10:23:55;;;;;;;;;;;;;;;;;;5053330;28;20055;-70
2023/09/23 10:26:25;;;;;;;2.28;0.60;;;;;;;;;;5052914;28;19920;-70
2023/09/23 10:29:00;;;;;;;3.20;0.52;;;;;;;;;;5052982;28;20084;-69
2023/09/23 10:31:28;;;;;;;1.17;0.63;;;;;;;;;;5052902;28;20045;-71
2023/09/23 10:33:55;;;;;;;2.97;0.70;;;;;;;;;;5052656;28;20132;-72
2023/09/23 10:36:23;;;;;;;3.45;0.70;;;;;;;;;;5052808;28;20470;-71
2023/09/23 10:38:50;;;;;;;0.90;0.50;;;;;;;;;;5052768;28;20170;-72
2023/09/23 10:41:17;;;;;;;1.33;0.50;;;;;;;;;;5052860;28;20049;-69
2023/09/23 10:43:53;;;;;;;2.65;0.70;;;;;;;;;;5034928;28;20118;-70
2023/09/23 10:46:20;;;;;;;1.13;0.65;;;;;;;;;;5052668;28;20523;-70
2023/09/23 10:48:47;;;;;;;2.05;0.60;;;;;;;;;;5052384;28;20041;-69
2023/09/23 10:51:15;;;;;;;2.47;0.63;;;;;;;;;;5052593;28;20049;-69
2023/09/23 10:53:44;;;;;;;1.38;0.57;;;;;;;;;;5052234;28;20512;-72
2023/09/23 10:56:11;;;;;;;2.28;0.90;;;;;;;;;;5035091;28;20041;-70
2023/09/23 10:58:38;;;;;;;2.30;0.80;;;;;;;;;;5052563;28;20045;-69
2023/09/23 11:01:06;;;;;;;2.40;0.93;;;;;;;;;;5052734;28;20056;-70
2023/09/23 11:03:40;;;;;;;3.13;0.82;;;;;;;;;;5052349;28;20049;-69
2023/09/23 11:06:08;;;;;;;2.90;0.80;;;;;;;;;;5052524;28;20103;-70
2023/09/23 11:08:36;;;;;;;2.40;0.70;;;;;;;;;;5052220;28;20045;-69
2023/09/23 11:11:03;;;;;;;1.63;0.70;;;;;;;;;;5034636;28;20049;-68
2023/09/23 11:13:33;;;;;;;2.15;0.80;;;;;;;;;;5051035;28;20107;-69
2023/09/23 11:16:08;;;;;;;1.80;0.75;;;;;;;;;;5051655;28;20136;-68
2023/09/23 11:18:37;;;;;;;1.73;0.70;;;;;;;;;;5051794;28;20131;-73
2023/09/23 11:21:04;;;;;;;2.10;0.75;;;;;;;;;;5052178;28;20041;-72
2023/09/23 11:23:32;;;;;;;2.50;0.70;;;;;;;;;;5051677;28;20041;-69
2023/09/23 11:25:59;;;;;;;2.63;0.80;;;;;;;;;;5052109;28;20127;-69
2023/09/23 11:28:27;;;;;;;2.42;0.60;;;;;;;;;;5051734;28;20044;-69
2023/09/23 11:30:56;;;;;;;4.50;0.80;;;;;;;;;;5051968;28;20041;-70
2023/09/23 11:33:23;;;;;;;2.20;0.80;;;;;;;;;;5051981;28;20045;-72
2023/09/23 11:35:49;;;;;;;2.78;0.80;;;;;;;;;;5051704;28;20094;-69
2023/09/23 11:38:20;;;;;;;2.22;0.98;;;;;;;;;;5033819;28;20098;-72
2023/09/23 11:40:47;;;;;;;2.38;0.80;;;;;;;;;;5051489;28;20047;-68
2023/09/23 11:43:15;;;;;;;1.13;0.70;;;;;;;;;;5051321;28;20044;-71
2023/09/23 11:45:43;;;;;;;1.70;0.80;;;;;;;;;;5051472;28;20044;-70
2023/09/23 11:48:10;;;;;;;3.08;0.93;;;;;;;;;;5051717;28;20140;-68
2023/09/23 11:50:38;;;;;;;1.45;0.70;;;;;;;;;;5051040;28;20134;-70
2023/09/23 11:53:05;;;;;;;1.67;0.80;;;;;;;;;;5051474;28;20134;-74
2023/09/23 11:55:35;;;;;;;0.82;0.57;;;;;;;;;;5051197;28;20718;-74
2023/09/23 11:58:02;;;;;;;;;;;;;;;;;;5051784;28;20416;-72
2023/09/23 12:00:29;;;;;;;2.67;0.80;;;;;;;;;;5051023;28;19921;-72
2023/09/23 12:02:56;;;;;;;1.77;0.80;;;;;;;;;;5051118;28;20045;-71
2023/09/23 12:05:28;;;;;;;2.80;0.70;;;;;;;;;;5050956;28;20045;-68
2023/09/23 12:07:58;;;;;;;2.25;0.63;;;;;;;;;;5051308;28;20073;-73
2023/09/23 12:10:27;;;;;;;3.07;0.70;;;;;;;;;;5050853;28;20132;-69
2023/09/23 12:13:02;;;;;;;2.38;0.70;;;;;;;;;;5050841;28;20779;-70
2023/09/23 12:15:30;;;;;;;1.25;0.70;;;;;;;;;;5050704;28;20509;-69
2023/09/23 12:17:57;;;;;;;2.63;0.70;;;;;;;;;;5050995;28;20138;-72
2023/09/23 12:20:24;;;;;;;3.33;0.85;;;;;;;;;;5050831;28;20045;-72
2023/09/23 12:22:57;;;;;;;1.85;0.80;;;;;;;;;;5050761;28;20041;-68
2023/09/23 12:25:24;;;;;;;1.45;0.60;;;;;;;;;;5050752;28;20132;-74
2023/09/23 12:27:51;;;;;;;1.42;0.70;;;;;;;;;;5051230;28;20067;-71
2023/09/23 12:30:18;;;;;;;1.63;0.70;;;;;;;;;;5050593;28;20068;-70
2023/09/23 12:32:45;;;;;;;2.40;0.80;;;;;;;;;;5050322;28;20045;-71
2023/09/23 12:35:12;;;;;;;1.70;0.70;;;;;;;;;;5050589;28;20128;-71
2023/09/23 12:37:39;;;;;;;3.13;0.77;;;;;;;;;;5050645;28;20132;-72
2023/09/23 12:40:07;;;;;;;3.92;0.70;;;;;;;;;;5050442;28;20045;-73
2023/09/23 12:42:34;;;;;;;1.33;0.60;;;;;;;;;;5050330;28;20131;-72
2023/09/23 12:45:01;;;;;;;3.55;0.95;;;;;;;;;;5050541;28;20386;-70
2023/09/23 12:47:31;;;;;;;2.53;1.17;;;;;;;;;;5050481;28;20526;-73
2023/09/23 12:50:18;;;;;;;3.10;0.77;;;;;;;;;;5050164;28;20135;-73
2023/09/23 12:52:45;;;;;;;2.42;0.70;;;;;;;;;;5049960;28;20048;-73
2023/09/23 12:55:11;;;;;;;1.67;0.68;;;;;;;;;;5049914;28;20660;-71
2023/09/23 12:57:38;;;;;;;1.63;0.75;;;;;;;;;;5050232;28;20605;-70
2023/09/23 13:00:06;;;;;;;3.15;1.00;;;;;;;;;;5050289;28;20045;-70
2023/09/23 13:02:34;;;;;;;2.72;0.77;;;;;;;;;;5049927;28;20051;-72
2023/09/23 13:05:01;;;;;;;1.83;0.77;;;;;;;;;;5049989;28;20461;-70
2023/09/23 13:07:28;;;;;;;2.17;0.80;;;;;;;;;;5050089;28;20436;-73
2023/09/23 13:09:55;;;;;;;2.70;0.80;;;;;;;;;;5049536;28;20606;-68
2023/09/23 13:12:21;;;;;;;1.23;0.63;;;;;;;;;;5050320;28;20106;-72
2023/09/23 13:14:48;;;;;;;1.58;0.80;;;;;;;;;;5050014;28;20045;-68
2023/09/23 13:17:15;;;;;;;1.73;0.68;;;;;;;;;;5049960;28;20052;-69
2023/09/23 13:19:42;;;;;;;1.33;0.73;;;;;;;;;;5050203;28;20053;-68
2023/09/23 13:22:09;;;;;;;2.40;0.80;;;;;;;;;;5049644;28;20525;-68
2023/09/23 13:24:35;;;;;;;1.67;0.80;;;;;;;;;;5049568;28;20084;-68
2023/09/23 13:27:03;;;;;;;2.90;0.90;;;;;;;;;;5049431;28;20505;-69
2023/09/23 13:29:31;;;;;;;2.60;0.75;;;;;;;;;;5050074;28;20049;-69
2023/09/23 13:31:59;;;;;;;2.03;0.90;;;;;;;;;;5049775;28;20048;-68
2023/09/23 13:34:26;;;;;;;4.15;1.10;;;;;;;;;;5049491;28;20132;-68
2023/09/23 13:36:53;;;;;;;2.83;0.90;;;;;;;;;;5049387;28;20041;-71
2023/09/23 13:39:20;;;;;;;3.17;0.88;;;;;;;;;;5049338;28;20048;-69
2023/09/23 13:41:46;;;;;;;1.60;0.90;;;;;;;;;;5049338;28;20504;-72
2023/09/23 13:44:13;;;;;;;4.68;1.00;;;;;;;;;;5049318;28;20493;-69
2023/09/23 13:46:40;;;;;;;2.15;0.80;;;;;;;;;;5049287;28;20501;-70
2023/09/23 13:49:07;;;;;;;2.97;0.90;;;;;;;;;;5049516;28;20080;-72
2023/09/23 13:51:33;;;;;;;2.35;0.77;;;;;;;;;;5049178;28;20049;-69
2023/09/23 13:54:00;;;;;;;2.67;1.08;;;;;;;;;;5049444;28;20119;-72
2023/09/23 13:56:27;;;;;;;1.92;1.00;;;;;;;;;;5049366;28;20552;-72
2023/09/23 13:58:54;;;;;;;3.50;0.85;;;;;;;;;;5049598;28;20049;-71
2023/09/23 14:01:21;;;;;;;2.95;0.77;;;;;;;;;;5049078;28;20714;-68
2023/09/23 14:03:48;;;;;;;2.30;0.77;;;;;;;;;;5049107;28;20041;-72
2023/09/23 14:06:14;;;;;;;1.67;0.82;;;;;;;;;;5049667;28;20106;-69
2023/09/23 14:08:41;;;;;;;1.92;0.70;;;;;;;;;;5049632;28;20057;-68
2023/09/23 14:11:08;;;;;;;2.22;0.77;;;;;;;;;;5049388;28;20056;-72
2023/09/23 14:13:35;;;;;;;1.73;0.80;;;;;;;;;;5049099;28;20437;-72
2023/09/23 14:16:02;;;;;;;2.92;0.70;;;;;;;;;;5049286;28;20048;-69
2023/09/23 14:18:29;;;;;;;2.22;0.80;;;;;;;;;;5049067;28;20102;-70
2023/09/23 14:20:56;;;;;;;1.60;0.73;;;;;;;;;;5048956;28;20053;-71
2023/09/23 14:23:23;;;;;;;2.40;0.80;;;;;;;;;;5049251;28;20139;-69
2023/09/23 14:25:49;;;;;;;3.20;1.10;;;;;;;;;;5048985;28;20053;-68
2023/09/23 14:28:16;;;;;;;2.28;1.02;;;;;;;;;;5049407;28;20041;-73
2023/09/23 14:30:43;;;;;;;1.85;0.82;;;;;;;;;;5049140;28;20052;-68
2023/09/23 14:33:10;;;;;;;5.38;1.00;;;;;;;;;;5049162;28;20132;-71
2023/09/23 14:35:37;;;;;;;4.43;0.80;;;;;;;;;;5049393;28;20053;-71
2023/09/23 14:38:04;;;;;;;1.98;0.90;;;;;;;;;;5048874;28;20053;-72
2023/09/23 14:40:31;;;;;;;2.85;0.80;;;;;;;;;;5048913;28;20049;-72
2023/09/23 14:42:58;;;;;;;3.75;0.95;;;;;;;;;;5048646;28;20118;-72
2023/09/23 14:45:24;;;;;;;3.05;0.93;;;;;;;;;;5048810;28;20045;-70
2023/09/23 14:47:51;;;;;;;3.38;1.10;;;;;;;;;;5049097;28;20045;-73
2023/09/23 14:50:18;;;;;;;3.20;0.95;;;;;;;;;;5050473;28;20045;-72
2023/09/23 14:52:47;;;;;;;2.33;0.90;;;;;;;;;;5052100;28;20103;-70